Time;durP1;ratioP1;P1;durP2;ratioP2;P2;SDS_P1;SDS_P2;PMS_P1;PMS_P2;Temp;Humidity;BMP_temperature;BMP_pressure;BME280_temperature;BME280_humidity;BME280_pressure;Samples;Min_cycle;Max_cycle;Signal;HPM_P1;HPM_P2
2023/12/17 00:01:15;;;;;;;14.02;12.60;;;22.70;65.90;;;;;;6202773;28;89010;-62
2023/12/17 00:04:17;;;;;;;13.55;12.15;;;22.70;66.00;;;;;;6203433;28;89278;-62
2023/12/17 00:07:19;;;;;;;14.20;12.70;;;22.70;66.00;;;;;;6204701;28;88951;-61
2023/12/17 00:10:22;;;;;;;12.55;11.35;;;22.60;66.10;;;;;;6204564;28;88973;-62
2023/12/17 00:13:24;;;;;;;14.65;12.63;;;22.60;66.10;;;;;;6202118;28;88767;-61
2023/12/17 00:16:29;;;;;;;13.48;12.10;;;22.60;66.20;;;;;;6204158;28;88386;-61
2023/12/17 00:19:31;;;;;;;15.15;12.27;;;22.60;66.20;;;;;;6204394;28;89097;-63
2023/12/17 00:22:33;;;;;;;13.73;12.32;;;22.50;66.30;;;;;;6204552;28;89045;-62
2023/12/17 00:25:35;;;;;;;13.02;11.73;;;22.50;66.40;;;;;;6202303;28;89983;-61
2023/12/17 00:28:37;;;;;;;13.57;12.25;;;22.50;66.40;;;;;;6204336;28;89067;-62
2023/12/17 00:31:40;;;;;;;12.98;11.65;;;22.50;66.40;;;;;;6213875;28;89116;-61
2023/12/17 00:34:42;;;;;;;15.48;12.65;;;22.50;66.50;;;;;;6185013;28;89184;-62
2023/12/17 00:37:44;;;;;;;13.55;12.18;;;22.50;66.50;;;;;;6200622;28;89278;-61
2023/12/17 00:40:46;;;;;;;14.50;12.45;;;22.50;66.60;;;;;;6189652;28;89054;-61
2023/12/17 00:43:48;;;;;;;13.18;11.82;;;22.40;66.60;;;;;;6192437;28;89078;-61
2023/12/17 00:46:51;;;;;;;14.10;12.45;;;22.40;66.60;;;;;;6203219;28;88383;-62
2023/12/17 00:49:53;;;;;;;12.77;11.50;;;22.40;66.70;;;;;;6194065;28;89141;-62
2023/12/17 00:52:55;;;;;;;13.13;11.80;;;22.40;67.00;;;;;;6202910;28;89439;-62
2023/12/17 00:55:57;;;;;;;12.65;11.38;;;22.40;67.00;;;;;;6208166;28;90296;-62
2023/12/17 00:58:59;;;;;;;13.48;12.07;;;22.40;67.00;;;;;;6209458;28;89082;-61
2023/12/17 01:02:02;;;;;;;13.73;12.30;;;22.40;67.10;;;;;;6202273;28;89864;-62
2023/12/17 01:05:05;;;;;;;14.30;12.77;;;22.30;67.00;;;;;;6206203;28;89075;-62
2023/12/17 01:08:07;;;;;;;14.38;12.00;;;22.30;67.00;;;;;;6190818;28;91545;-63
2023/12/17 01:11:09;;;;;;;14.30;12.80;;;22.40;67.10;;;;;;6197306;28;89441;-62
2023/12/17 01:14:11;;;;;;;15.95;12.55;;;22.30;67.10;;;;;;6205866;28;87860;-62
2023/12/17 01:17:15;;;;;;;12.50;11.20;;;22.30;67.10;;;;;;6202743;28;88365;-61
2023/12/17 01:20:17;;;;;;;14.30;12.38;;;22.30;67.10;;;;;;6192474;28;89330;-62
2023/12/17 01:23:19;;;;;;;13.43;12.02;;;22.30;67.20;;;;;;6204855;28;89109;-62
2023/12/17 01:26:23;;;;;;;12.77;11.48;;;22.30;67.20;;;;;;6202869;28;89547;-60
2023/12/17 01:29:24;;;;;;;13.23;11.75;;;22.20;67.20;;;;;;6197620;28;89082;-61
2023/12/17 01:32:28;;;;;;;12.98;11.63;;;22.30;67.60;;;;;;6205762;28;89035;-61
2023/12/17 01:35:31;;;;;;;12.95;11.52;;;22.20;67.40;;;;;;6208024;28;89092;-61
2023/12/17 01:38:33;;;;;;;13.20;11.75;;;22.20;67.40;;;;;;6200727;28;89036;-61
2023/12/17 01:41:35;;;;;;;12.60;11.27;;;22.20;67.40;;;;;;6202462;28;87941;-61
2023/12/17 01:44:37;;;;;;;13.25;11.93;;;22.20;67.40;;;;;;6199554;28;89013;-62
2023/12/17 01:47:41;;;;;;;12.82;11.52;;;22.20;67.40;;;;;;6202786;28;88597;-61
2023/12/17 01:50:43;;;;;;;12.02;10.80;;;22.20;67.40;;;;;;6189381;28;89044;-62
2023/12/17 01:53:45;;;;;;;12.82;11.52;;;22.20;67.40;;;;;;6198556;28;88890;-61
2023/12/17 01:56:48;;;;;;;12.98;11.07;;;22.20;67.50;;;;;;6206998;28;90622;-61
2023/12/17 01:59:51;;;;;;;12.30;10.80;;;22.20;67.50;;;;;;6190871;28;89004;-60
2023/12/17 02:02:54;;;;;;;12.30;11.02;;;22.20;67.50;;;;;;6202988;28;89435;-61
2023/12/17 02:05:56;;;;;;;12.13;10.93;;;22.20;67.50;;;;;;6193417;28;89035;-61
2023/12/17 02:08:58;;;;;;;12.52;11.20;;;22.20;67.60;;;;;;6207021;28;89421;-61
2023/12/17 02:12:00;;;;;;;12.30;11.00;;;22.20;67.50;;;;;;6200828;28;91639;-61
2023/12/17 02:15:02;;;;;;;11.90;10.70;;;22.20;67.60;;;;;;6200303;28;89265;-61
2023/12/17 02:18:06;;;;;;;11.75;10.27;;;22.20;67.60;;;;;;6202400;28;88252;-61
2023/12/17 02:21:08;;;;;;;11.85;10.65;;;22.10;67.60;;;;;;6190309;28;87935;-62
2023/12/17 02:24:12;;;;;;;11.98;10.68;;;22.10;67.60;;;;;;6202278;28;89388;-61
2023/12/17 02:27:20;;;;;;;11.95;10.75;;;22.10;67.50;;;;;;6213945;28;89973;-61
2023/12/17 02:30:22;;;;;;;12.55;11.32;;;22.10;67.50;;;;;;6202808;28;89260;-61
2023/12/17 02:33:24;;;;;;;14.82;11.82;;;22.10;67.60;;;;;;6199795;28;89617;-61
2023/12/17 02:36:26;;;;;;;12.07;10.88;;;22.10;67.60;;;;;;6195280;28;89159;-61
2023/12/17 02:39:30;;;;;;;11.65;10.45;;;22.10;67.70;;;;;;6187382;28;89154;-62
2023/12/17 02:42:31;;;;;;;15.30;11.05;;;22.10;67.70;;;;;;6195174;28;89093;-62
2023/12/17 02:45:33;;;;;;;11.10;10.00;;;22.10;67.70;;;;;;6199362;28;89031;-61
2023/12/17 02:48:35;;;;;;;12.05;10.48;;;22.10;67.70;;;;;;6196997;28;88375;-62
2023/12/17 02:51:37;;;;;;;11.55;9.82;;;22.10;67.70;;;;;;6196143;28;89168;-62
2023/12/17 02:54:41;;;;;;;11.40;9.90;;;22.00;67.70;;;;;;6211185;28;89121;-61
2023/12/17 02:57:42;;;;;;;11.57;10.18;;;22.00;67.70;;;;;;6207053;28;90038;-62
2023/12/17 03:00:45;;;;;;;10.55;9.45;;;22.00;67.70;;;;;;6202410;28;89015;-62
2023/12/17 03:03:46;;;;;;;11.52;10.13;;;22.00;67.70;;;;;;6207061;28;89059;-62
2023/12/17 03:06:48;;;;;;;10.85;9.70;;;22.00;67.80;;;;;;6200048;28;87830;-62
2023/12/17 03:09:54;;;;;;;10.85;9.75;;;22.00;67.80;;;;;;6207645;28;89291;-62
2023/12/17 03:12:56;;;;;;;11.18;9.73;;;21.90;67.70;;;;;;6202785;28;87952;-62
2023/12/17 03:15:58;;;;;;;10.80;9.65;;;22.00;67.90;;;;;;6206950;28;89128;-62
2023/12/17 03:19:00;;;;;;;9.75;8.85;;;22.00;67.90;;;;;;6207000;28;88251;-62
2023/12/17 03:22:02;;;;;;;10.18;9.18;;;21.90;67.90;;;;;;6208299;28;89074;-62
2023/12/17 03:25:06;;;;;;;9.98;8.93;;;21.90;67.90;;;;;;6207362;28;89031;-61
2023/12/17 03:28:08;;;;;;;10.25;9.18;;;21.90;67.90;;;;;;6193726;28;90342;-62
2023/12/17 03:31:13;;;;;;;17.70;9.00;;;21.90;67.90;;;;;;6195240;28;88990;-61
2023/12/17 03:34:15;;;;;;;10.10;9.10;;;21.90;68.00;;;;;;6210931;28;87904;-62
2023/12/17 03:37:17;;;;;;;9.80;8.82;;;21.90;68.00;;;;;;6209735;28;89555;-62
2023/12/17 03:40:21;;;;;;;9.98;8.98;;;21.90;68.00;;;;;;6208160;28;90577;-62
2023/12/17 03:43:23;;;;;;;9.38;8.35;;;21.90;68.10;;;;;;6203341;28;87996;-62
2023/12/17 03:46:26;;;;;;;8.90;8.00;;;21.90;68.10;;;;;;6210430;28;89076;-62
2023/12/17 03:49:28;;;;;;;9.57;8.57;;;21.90;68.00;;;;;;6207923;28;87274;-61
2023/12/17 03:52:30;;;;;;;9.23;8.32;;;21.90;68.10;;;;;;6207443;28;88987;-62
2023/12/17 03:55:33;;;;;;;9.52;8.15;;;21.90;68.10;;;;;;6194436;28;89082;-61
2023/12/17 03:58:36;;;;;;;9.35;8.35;;;21.90;68.10;;;;;;6203485;28;89943;-62
2023/12/17 04:01:45;;;;;;;8.45;7.65;;;21.90;68.10;;;;;;6206607;28;89165;-61
2023/12/17 04:04:47;;;;;;;9.35;8.40;;;21.90;68.00;;;;;;6222845;28;89559;-61
2023/12/17 04:07:49;;;;;;;9.38;7.90;;;21.90;68.10;;;;;;6214688;28;89078;-62
2023/12/17 04:10:53;;;;;;;9.25;8.25;;;21.90;68.10;;;;;;6209856;28;88971;-62
2023/12/17 04:13:54;;;;;;;9.05;8.13;;;21.90;68.10;;;;;;6217374;28;89070;-62
2023/12/17 04:16:56;;;;;;;8.63;7.53;;;21.80;68.10;;;;;;6201166;28;89411;-61
2023/12/17 04:19:58;;;;;;;8.68;7.78;;;21.80;68.10;;;;;;6213404;28;88301;-62
2023/12/17 04:23:00;;;;;;;8.77;7.88;;;21.80;68.10;;;;;;6220198;28;89210;-62
2023/12/17 04:26:04;;;;;;;10.75;8.52;;;21.80;68.10;;;;;;6199346;28;89209;-61
2023/12/17 04:29:06;;;;;;;10.05;8.32;;;21.80;68.00;;;;;;6199742;28;90076;-61
2023/12/17 04:32:08;;;;;;;8.38;7.57;;;21.80;68.10;;;;;;6225248;28;89184;-61
2023/12/17 04:35:10;;;;;;;9.77;8.35;;;21.80;68.10;;;;;;6222956;28;89036;-62
2023/12/17 04:38:13;;;;;;;9.38;8.40;;;21.80;68.10;;;;;;6222141;28;89368;-61
2023/12/17 04:41:17;;;;;;;9.93;8.93;;;21.80;68.10;;;;;;6211048;28;89277;-61
2023/12/17 04:44:19;;;;;;;9.68;8.68;;;21.90;68.10;;;;;;6205373;28;89063;-62
2023/12/17 04:47:21;;;;;;;10.50;8.88;;;21.80;67.90;;;;;;6199742;28;89365;-61
2023/12/17 04:50:23;;;;;;;9.88;8.77;;;21.80;67.90;;;;;;6205800;28;88357;-62
2023/12/17 04:53:25;;;;;;;9.63;8.63;;;21.80;67.90;;;;;;6202392;28;89155;-61
2023/12/17 04:56:29;;;;;;;10.20;9.10;;;21.90;67.90;;;;;;6206274;28;88994;-61
2023/12/17 04:59:31;;;;;;;9.90;8.93;;;21.90;67.90;;;;;;6205283;28;89068;-61
2023/12/17 05:02:32;;;;;;;9.57;8.57;;;21.90;67.80;;;;;;6205234;28;89022;-62
2023/12/17 05:05:34;;;;;;;9.60;8.60;;;22.00;67.90;;;;;;6209108;28;88001;-62
2023/12/17 05:08:36;;;;;;;9.73;8.73;;;22.00;67.80;;;;;;6203377;28;89245;-61
2023/12/17 05:11:40;;;;;;;11.23;9.35;;;22.00;67.70;;;;;;6201140;28;89109;-61
2023/12/17 05:14:42;;;;;;;9.65;8.70;;;22.00;67.70;;;;;;6196850;28;89090;-61
2023/12/17 05:17:44;;;;;;;9.55;8.65;;;22.10;67.70;;;;;;6207421;28;89156;-62
2023/12/17 05:20:46;;;;;;;9.73;8.73;;;22.10;67.70;;;;;;6207266;28;88589;-61
2023/12/17 05:23:48;;;;;;;10.10;9.10;;;22.10;67.70;;;;;;6206451;28;89337;-61
2023/12/17 05:26:51;;;;;;;10.00;9.00;;;22.10;67.70;;;;;;6205376;28;89086;-61
2023/12/17 05:29:53;;;;;;;9.30;8.40;;;22.20;67.70;;;;;;6211728;28;89433;-61
2023/12/17 05:32:55;;;;;;;9.40;8.50;;;22.20;67.70;;;;;;6207366;28;89096;-61
2023/12/17 05:35:57;;;;;;;9.40;8.40;;;22.20;67.70;;;;;;6203313;28;88331;-61
2023/12/17 05:38:59;;;;;;;11.02;9.13;;;22.20;67.60;;;;;;6212496;28;88008;-61
2023/12/17 05:42:03;;;;;;;9.65;8.65;;;22.30;67.60;;;;;;6211895;28;89304;-62
2023/12/17 05:45:06;;;;;;;10.27;9.15;;;22.30;67.60;;;;;;6198670;28;88973;-62
2023/12/17 05:48:09;;;;;;;9.32;8.32;;;22.40;67.70;;;;;;6215118;28;89004;-62
2023/12/17 05:51:11;;;;;;;12.13;9.35;;;22.40;67.60;;;;;;6204417;28;88296;-62
2023/12/17 05:54:13;;;;;;;9.55;8.63;;;22.40;67.60;;;;;;6206726;28;89220;-61
2023/12/17 05:57:17;;;;;;;9.50;8.60;;;22.40;67.60;;;;;;6206316;28;89699;-62
2023/12/17 06:00:19;;;;;;;9.10;8.20;;;22.40;67.50;;;;;;6206877;28;89908;-61
2023/12/17 06:03:21;;;;;;;9.40;7.95;;;22.50;68.40;;;;;;6229762;28;89069;-62
2023/12/17 06:06:23;;;;;;;8.70;7.90;;;22.50;67.40;;;;;;6229865;28;89069;-62
2023/12/17 06:09:25;;;;;;;9.00;8.10;;;22.50;67.40;;;;;;6217392;28;89143;-62
2023/12/17 06:12:28;;;;;;;8.80;7.90;;;22.50;67.40;;;;;;6218312;28;89078;-61
2023/12/17 06:15:30;;;;;;;8.52;7.72;;;22.50;67.40;;;;;;6193967;28;89136;-61
2023/12/17 06:18:32;;;;;;;9.70;8.45;;;22.60;67.40;;;;;;6217058;28;89570;-61
2023/12/17 06:21:34;;;;;;;8.88;7.93;;;22.60;67.40;;;;;;6205465;28;88584;-61
2023/12/17 06:24:36;;;;;;;9.00;8.10;;;22.60;67.30;;;;;;6200000;28;89053;-61
2023/12/17 06:27:40;;;;;;;8.23;7.43;;;22.70;67.40;;;;;;6215193;28;89251;-61
2023/12/17 06:30:42;;;;;;;8.60;7.72;;;22.70;67.30;;;;;;6217857;28;88926;-61
2023/12/17 06:33:44;;;;;;;8.70;7.80;;;22.70;67.30;;;;;;6224945;28;88135;-62
2023/12/17 06:36:46;;;;;;;8.80;7.90;;;22.70;67.20;;;;;;6214893;28;89400;-61
2023/12/17 06:39:48;;;;;;;8.63;7.72;;;22.70;67.20;;;;;;6229331;28;89447;-62
2023/12/17 06:42:51;;;;;;;8.65;7.75;;;22.80;67.30;;;;;;6229857;28;87988;-62
2023/12/17 06:45:53;;;;;;;10.05;8.20;;;22.80;67.20;;;;;;6197316;28;89248;-61
2023/12/17 06:48:55;;;;;;;8.25;7.45;;;22.80;67.30;;;;;;6209864;28;89035;-62
2023/12/17 06:51:57;;;;;;;7.68;6.97;;;22.80;67.40;;;;;;6212661;28;88404;-61
2023/12/17 06:54:59;;;;;;;7.60;6.90;;;22.80;67.20;;;;;;6230852;28;89562;-62
2023/12/17 06:58:02;;;;;;;8.68;7.22;;;22.80;67.20;;;;;;6211664;28;89120;-62
2023/12/17 07:01:05;;;;;;;7.57;6.85;;;22.80;67.20;;;;;;6209480;28;90209;-62
2023/12/17 07:04:07;;;;;;;8.00;7.20;;;22.90;67.20;;;;;;6208922;28;89119;-61
2023/12/17 07:07:09;;;;;;;7.85;7.15;;;22.90;67.20;;;;;;6208295;28;89001;-61
2023/12/17 07:10:12;;;;;;;7.85;7.15;;;22.90;67.20;;;;;;6208950;28;89099;-61
2023/12/17 07:13:15;;;;;;;7.30;6.60;;;22.90;67.20;;;;;;6208633;28;89016;-61
2023/12/17 07:16:21;;;;;;;7.35;6.65;;;22.90;67.10;;;;;;6211556;28;89100;-61
2023/12/17 07:19:23;;;;;;;7.85;7.05;;;22.90;67.10;;;;;;6186652;28;89464;-61
2023/12/17 07:22:25;;;;;;;7.60;6.90;;;22.90;67.20;;;;;;6223403;28;88334;-62
2023/12/17 07:25:27;;;;;;;8.70;6.88;;;23.00;67.20;;;;;;6216389;28;89123;-62
2023/12/17 07:28:31;;;;;;;7.25;6.57;;;23.00;67.20;;;;;;6213630;28;89164;-62
2023/12/17 07:31:33;;;;;;;7.07;6.38;;;23.00;67.20;;;;;;6224789;28;89922;-62
2023/12/17 07:34:34;;;;;;;7.38;6.57;;;23.00;67.20;;;;;;6216430;28;89109;-61
2023/12/17 07:37:36;;;;;;;7.20;6.50;;;23.00;67.20;;;;;;6216601;28;89034;-61
2023/12/17 07:40:39;;;;;;;6.65;6.05;;;23.00;67.20;;;;;;6222954;28;90720;-62
2023/12/17 07:43:43;;;;;;;6.75;6.05;;;23.00;67.20;;;;;;6222459;28;88654;-62
2023/12/17 07:46:45;;;;;;;7.03;6.32;;;23.00;67.20;;;;;;6223239;28;89810;-62
2023/12/17 07:49:46;;;;;;;6.85;6.15;;;23.00;67.10;;;;;;6214703;28;89168;-62
2023/12/17 07:52:48;;;;;;;6.65;5.95;;;23.10;67.20;;;;;;6218698;28;88349;-62
2023/12/17 07:55:52;;;;;;;6.32;5.72;;;23.10;67.60;;;;;;6216705;28;88999;-62
2023/12/17 07:58:55;;;;;;;6.63;5.90;;;23.10;67.20;;;;;;6217041;28;88835;-62
2023/12/17 08:01:57;;;;;;;6.45;5.85;;;23.10;67.10;;;;;;6194183;28;89763;-62
2023/12/17 08:04:59;;;;;;;6.80;6.10;;;23.10;67.10;;;;;;6214409;28;89336;-62
2023/12/17 08:08:03;;;;;;;6.10;5.53;;;23.10;67.10;;;;;;6214076;28;89060;-62
2023/12/17 08:11:06;;;;;;;6.32;5.72;;;23.20;67.10;;;;;;6213139;28;89221;-62
2023/12/17 08:14:09;;;;;;;6.10;5.50;;;23.10;67.20;;;;;;6194544;28;89133;-62
2023/12/17 08:17:11;;;;;;;5.95;5.40;;;23.20;67.20;;;;;;6211784;28;89020;-62
2023/12/17 08:20:13;;;;;;;6.10;5.50;;;23.20;67.20;;;;;;6215775;28;87706;-62
2023/12/17 08:23:16;;;;;;;6.60;5.90;;;23.30;67.20;;;;;;6211863;28;88601;-62
2023/12/17 08:26:19;;;;;;;5.88;5.35;;;23.20;67.20;;;;;;6200100;28;89036;-62
2023/12/17 08:29:22;;;;;;;6.20;5.60;;;23.30;67.20;;;;;;6203253;28;88771;-62
2023/12/17 08:32:31;;;;;;;6.07;5.47;;;23.20;67.30;;;;;;6206612;28;91004;-62
2023/12/17 08:35:36;;;;;;;5.55;5.05;;;23.20;67.20;;;;;;6202974;28;87865;-63
2023/12/17 08:38:39;;;;;;;6.03;5.43;;;23.20;67.20;;;;;;6186851;28;89167;-62
2023/12/17 08:41:41;;;;;;;8.20;6.38;;;23.30;67.40;;;;;;6205376;28;89018;-62
2023/12/17 08:44:44;;;;;;;5.88;5.35;;;23.30;67.40;;;;;;6208015;28;89027;-62
2023/12/17 08:47:46;;;;;;;5.65;5.15;;;23.30;67.40;;;;;;6197871;28;89047;-62
2023/12/17 08:50:48;;;;;;;5.97;5.45;;;23.30;67.40;;;;;;6208619;28;88140;-62
2023/12/17 08:53:50;;;;;;;5.70;5.10;;;23.30;67.40;;;;;;6220609;28;88319;-62
2023/12/17 08:56:52;;;;;;;5.68;5.18;;;23.30;67.40;;;;;;6207425;28;89339;-62
2023/12/17 08:59:56;;;;;;;5.70;5.10;;;23.30;67.40;;;;;;6206707;28;89132;-62
2023/12/17 09:02:58;;;;;;;5.85;5.25;;;23.30;67.40;;;;;;6206179;28;90098;-62
2023/12/17 09:06:00;;;;;;;5.68;5.07;;;23.40;67.50;;;;;;6210508;28;88969;-61
2023/12/17 09:09:02;;;;;;;5.30;4.80;;;23.40;67.50;;;;;;6211818;28;89105;-62
2023/12/17 09:12:05;;;;;;;5.80;5.25;;;23.40;67.50;;;;;;6222629;28;89330;-62
2023/12/17 09:15:09;;;;;;;5.78;5.18;;;23.40;67.50;;;;;;6216122;28;89203;-62
2023/12/17 09:18:11;;;;;;;5.10;4.60;;;23.40;67.40;;;;;;6207186;28;89034;-62
2023/12/17 09:21:13;;;;;;;5.47;4.97;;;23.40;67.50;;;;;;6212226;28;89408;-62
2023/12/17 09:24:15;;;;;;;5.10;4.60;;;23.40;67.50;;;;;;6206817;28;89191;-62
2023/12/17 09:27:17;;;;;;;5.43;4.93;;;23.40;67.50;;;;;;6203804;28;89159;-62
2023/12/17 09:30:21;;;;;;;5.68;5.13;;;23.40;67.50;;;;;;6208391;28;89004;-61
2023/12/17 09:33:23;;;;;;;4.88;4.38;;;23.50;67.60;;;;;;6205629;28;90035;-62
2023/12/17 09:36:26;;;;;;;5.13;4.72;;;23.50;67.60;;;;;;6197952;28;89124;-62
2023/12/17 09:39:29;;;;;;;5.35;4.85;;;23.50;67.60;;;;;;6197112;28;89016;-62
2023/12/17 09:42:31;;;;;;;5.88;5.05;;;23.50;67.60;;;;;;6188511;28;88563;-62
2023/12/17 09:45:35;;;;;;;5.35;4.85;;;23.60;67.70;;;;;;6202498;28;89047;-63
2023/12/17 09:48:37;;;;;;;4.80;4.40;;;23.60;67.70;;;;;;6199358;28;89057;-62
2023/12/17 09:51:46;;;;;;;5.20;4.70;;;23.60;67.70;;;;;;6212952;28;90816;-62
2023/12/17 09:54:49;;;;;;;4.65;4.22;;;23.60;67.70;;;;;;6206475;28;88186;-62
2023/12/17 09:57:51;;;;;;;5.03;4.53;;;23.60;67.70;;;;;;6218075;28;89211;-62
2023/12/17 10:00:54;;;;;;;5.03;4.53;;;23.60;67.70;;;;;;6208026;28;87965;-62
2023/12/17 10:03:57;;;;;;;4.47;4.07;;;23.60;67.70;;;;;;6207176;28;90111;-62
2023/12/17 10:06:59;;;;;;;4.80;4.30;;;23.60;67.70;;;;;;6200929;28;88969;-62
2023/12/17 10:10:01;;;;;;;4.60;4.20;;;23.60;67.70;;;;;;6200839;28;89033;-62
2023/12/17 10:13:03;;;;;;;5.22;4.72;;;23.70;67.90;;;;;;6204368;28;89070;-62
2023/12/17 10:16:08;;;;;;;5.20;4.70;;;23.70;67.90;;;;;;6200579;28;89093;-62
2023/12/17 10:19:10;;;;;;;5.32;4.82;;;23.60;67.90;;;;;;6224774;28;89119;-62
2023/12/17 10:22:11;;;;;;;5.60;5.10;;;23.70;67.90;;;;;;6197829;28;89137;-62
2023/12/17 10:25:23;;;;;;;5.50;5.00;;;23.70;68.00;;;;;;6199900;28;87157;-62
2023/12/17 10:28:26;;;;;;;6.05;5.45;;;23.70;68.00;;;;;;6190892;28;89026;-62
2023/12/17 10:31:31;;;;;;;6.30;5.70;;;23.70;68.10;;;;;;6205192;28;89026;-62
2023/12/17 10:34:34;;;;;;;7.18;6.43;;;23.70;68.00;;;;;;6217110;28;89188;-62
2023/12/17 10:37:37;;;;;;;6.70;6.10;;;23.70;68.00;;;;;;6214581;28;89340;-62
2023/12/17 10:40:41;;;;;;;6.82;6.22;;;23.70;68.10;;;;;;6215588;28;89137;-62
2023/12/17 10:43:44;;;;;;;7.18;6.47;;;23.70;68.10;;;;;;6215947;28;89176;-62
2023/12/17 10:46:49;;;;;;;7.50;6.80;;;23.70;68.10;;;;;;6205908;28;89267;-62
2023/12/17 10:49:54;;;;;;;7.90;7.20;;;23.70;68.10;;;;;;6211674;28;88249;-63
2023/12/17 10:52:56;;;;;;;8.25;7.45;;;23.80;68.10;;;;;;6206990;28;89044;-62
2023/12/17 10:55:58;;;;;;;9.02;7.93;;;23.80;68.10;;;;;;6216012;28;88205;-62
2023/12/17 10:59:00;;;;;;;8.48;7.75;;;23.70;68.10;;;;;;6205286;28;89089;-62
2023/12/17 11:02:06;;;;;;;8.30;7.50;;;23.80;68.10;;;;;;6198636;28;88147;-63
2023/12/17 11:05:09;;;;;;;8.98;8.18;;;23.70;68.10;;;;;;6215614;28;90316;-62
2023/12/17 11:08:11;;;;;;;8.75;7.93;;;23.80;68.10;;;;;;6209248;28;89053;-62
2023/12/17 11:11:13;;;;;;;9.30;8.30;;;23.80;68.10;;;;;;6216811;28;89144;-62
2023/12/17 11:14:15;;;;;;;8.68;7.88;;;23.80;68.10;;;;;;6214490;28;87963;-62
2023/12/17 11:17:19;;;;;;;9.15;8.25;;;23.80;68.10;;;;;;6210203;28;89153;-62
2023/12/17 11:20:21;;;;;;;9.45;8.45;;;23.80;68.10;;;;;;6199908;28;87994;-63
2023/12/17 11:23:23;;;;;;;9.05;8.15;;;23.80;68.10;;;;;;6194949;28;87873;-62
2023/12/17 11:26:25;;;;;;;9.18;8.38;;;23.80;68.10;;;;;;6209912;28;88198;-62
2023/12/17 11:29:33;;;;;;;9.30;8.40;;;23.90;68.10;;;;;;6222240;28;87918;-62
2023/12/17 11:32:36;;;;;;;9.18;8.27;;;23.80;68.10;;;;;;6225154;28;89248;-62
2023/12/17 11:35:39;;;;;;;9.38;8.48;;;23.90;68.20;;;;;;6221693;28;89992;-62
2023/12/17 11:38:41;;;;;;;9.23;8.38;;;23.90;68.10;;;;;;6207708;28;89127;-62
2023/12/17 11:41:43;;;;;;;9.45;8.55;;;23.90;68.10;;;;;;6209503;28;89100;-62
2023/12/17 11:44:46;;;;;;;9.48;8.57;;;23.90;68.20;;;;;;6223840;28;88954;-62
2023/12/17 11:47:50;;;;;;;9.20;8.40;;;23.90;68.10;;;;;;6208801;28;89436;-62
2023/12/17 11:50:54;;;;;;;9.55;8.65;;;23.80;68.10;;;;;;6204940;28;89102;-62
2023/12/17 11:53:56;;;;;;;9.50;8.55;;;23.90;68.20;;;;;;6205676;28;89604;-62
2023/12/17 11:56:58;;;;;;;9.63;8.63;;;23.90;68.20;;;;;;6215221;28;88707;-62
2023/12/17 12:00:00;;;;;;;9.07;8.18;;;23.90;68.20;;;;;;6214761;28;89019;-62
2023/12/17 12:03:03;;;;;;;9.20;8.30;;;23.90;68.20;;;;;;6212376;28;89837;-62
2023/12/17 12:06:09;;;;;;;9.02;8.23;;;23.90;68.20;;;;;;6206754;28;90022;-62
2023/12/17 12:09:19;;;;;;;9.07;8.23;;;23.90;68.20;;;;;;6212276;28;88928;-62
2023/12/17 12:12:24;;;;;;;8.85;8.05;;;23.90;68.30;;;;;;6186325;28;89008;-62
2023/12/17 12:15:26;;;;;;;8.57;7.80;;;23.90;68.30;;;;;;6215831;28;89228;-62
2023/12/17 12:18:29;;;;;;;9.32;8.32;;;23.90;68.20;;;;;;6195457;28;89591;-62
2023/12/17 12:21:32;;;;;;;8.90;8.07;;;23.90;68.30;;;;;;6217618;28;89127;-62
2023/12/17 12:24:36;;;;;;;8.55;7.75;;;23.90;68.30;;;;;;6212766;28;89168;-62
2023/12/17 12:27:38;;;;;;;8.63;7.82;;;23.90;68.30;;;;;;6215743;28;88584;-62
2023/12/17 12:30:40;;;;;;;8.38;7.57;;;23.90;68.20;;;;;;6205653;28;87939;-62
2023/12/17 12:33:52;;;;;;;8.40;7.60;;;23.90;68.20;;;;;;6219045;28;89409;-62
2023/12/17 12:36:55;;;;;;;8.20;7.40;;;23.90;68.20;;;;;;6210859;28;89984;-62
2023/12/17 12:39:57;;;;;;;8.30;7.45;;;23.90;68.20;;;;;;6214916;28;88982;-62
2023/12/17 12:43:02;;;;;;;8.00;7.30;;;23.90;68.20;;;;;;6223026;28;88759;-62
2023/12/17 12:46:05;;;;;;;8.32;7.53;;;24.00;68.30;;;;;;6216033;28;89067;-62
2023/12/17 12:49:08;;;;;;;7.80;7.10;;;23.90;68.20;;;;;;6208009;28;89064;-62
2023/12/17 12:52:10;;;;;;;7.90;7.20;;;24.00;68.30;;;;;;6214148;28;89077;-62
2023/12/17 12:55:12;;;;;;;7.55;6.85;;;24.00;68.30;;;;;;6186065;28;89358;-62
2023/12/17 12:58:15;;;;;;;8.32;7.50;;;23.90;68.10;;;;;;6204938;28;88845;-62
2023/12/17 13:01:17;;;;;;;8.82;7.93;;;24.00;68.20;;;;;;6205667;28;89024;-63
2023/12/17 13:04:20;;;;;;;7.57;6.90;;;24.00;68.20;;;;;;6208068;28;89410;-62
2023/12/17 13:07:22;;;;;;;7.57;6.88;;;24.00;68.20;;;;;;6192813;28;89991;-62
2023/12/17 13:10:24;;;;;;;7.68;6.97;;;24.00;68.10;;;;;;6205488;28;89252;-62
2023/12/17 13:13:26;;;;;;;7.65;6.95;;;24.00;68.10;;;;;;6219816;28;89129;-62
2023/12/17 13:16:28;;;;;;;7.63;6.93;;;24.00;68.10;;;;;;6212301;28;89071;-62
2023/12/17 13:19:32;;;;;;;6.88;6.28;;;24.00;68.10;;;;;;6228846;28;89002;-62
2023/12/17 13:22:34;;;;;;;7.00;6.30;;;24.00;68.10;;;;;;6208759;28;89282;-63
2023/12/17 13:25:36;;;;;;;7.43;6.70;;;24.00;68.10;;;;;;6205401;28;89027;-62
2023/12/17 13:28:38;;;;;;;7.20;6.50;;;24.00;68.10;;;;;;6207587;28;88315;-62
2023/12/17 13:31:40;;;;;;;6.97;6.30;;;24.00;68.10;;;;;;6220704;28;88023;-62
2023/12/17 13:34:43;;;;;;;6.70;6.10;;;24.00;68.10;;;;;;6212946;28;88939;-62
2023/12/17 13:37:45;;;;;;;6.78;6.18;;;24.00;68.10;;;;;;6204105;28;90192;-62
2023/12/17 13:40:49;;;;;;;6.40;5.80;;;24.00;68.10;;;;;;6213980;28;89021;-62
2023/12/17 13:43:52;;;;;;;7.22;6.45;;;24.00;68.10;;;;;;6212919;28;89286;-63
2023/12/17 13:46:54;;;;;;;6.50;5.90;;;24.00;68.10;;;;;;6206851;28;89157;-62
2023/12/17 13:49:57;;;;;;;6.70;6.10;;;24.00;68.00;;;;;;6201904;28;89058;-62
2023/12/17 13:53:00;;;;;;;5.82;5.32;;;24.00;68.00;;;;;;6210422;28;89082;-62
2023/12/17 13:56:02;;;;;;;6.40;5.80;;;24.10;68.10;;;;;;6212154;28;88909;-62
2023/12/17 13:59:04;;;;;;;6.30;5.70;;;24.00;68.00;;;;;;6212660;28;88382;-62
2023/12/17 14:02:07;;;;;;;6.10;5.50;;;24.10;68.00;;;;;;6210869;28;87921;-62
2023/12/17 14:05:11;;;;;;;5.97;5.40;;;24.00;67.90;;;;;;6210893;28;89148;-62
2023/12/17 14:08:13;;;;;;;6.40;5.68;;;24.00;67.90;;;;;;6211364;28;90030;-62
2023/12/17 14:11:15;;;;;;;6.43;5.68;;;24.00;67.90;;;;;;6205769;28;87969;-62
2023/12/17 14:14:17;;;;;;;6.13;5.53;;;24.00;67.90;;;;;;6203320;28;89004;-62
2023/12/17 14:17:18;;;;;;;6.05;5.45;;;24.00;67.90;;;;;;6206707;28;89091;-62
2023/12/17 14:20:22;;;;;;;6.28;5.68;;;24.00;68.00;;;;;;6204705;28;89289;-62
2023/12/17 14:23:24;;;;;;;7.15;6.28;;;24.10;68.10;;;;;;6195203;28;88942;-62
2023/12/17 14:26:26;;;;;;;7.10;6.20;;;24.00;68.10;;;;;;6207208;28;89047;-62
2023/12/17 14:29:29;;;;;;;7.20;6.20;;;24.10;68.10;;;;;;6201857;28;88498;-62
2023/12/17 14:32:31;;;;;;;7.53;6.10;;;24.10;68.10;;;;;;6198057;28;88991;-62
2023/12/17 14:35:34;;;;;;;7.38;6.38;;;24.10;68.10;;;;;;6195133;28;89060;-61
2023/12/17 14:38:37;;;;;;;7.22;5.82;;;24.10;68.10;;;;;;6205691;28;89849;-62
2023/12/17 14:41:39;;;;;;;9.70;7.28;;;24.10;68.10;;;;;;6226618;28;89081;-62
2023/12/17 14:44:41;;;;;;;9.77;7.03;;;24.10;68.10;;;;;;6207540;28;89128;-62
2023/12/17 14:47:43;;;;;;;9.52;6.65;;;24.10;68.10;;;;;;6200347;28;89076;-62
2023/12/17 14:50:47;;;;;;;12.70;7.35;;;24.10;68.10;;;;;;6210020;28;89321;-62
2023/12/17 14:53:49;;;;;;;9.88;7.28;;;24.10;68.10;;;;;;6199209;28;88554;-61
2023/12/17 14:56:52;;;;;;;10.20;7.25;;;24.10;68.10;;;;;;6200590;28;89324;-62
2023/12/17 14:59:54;;;;;;;11.60;7.03;;;24.10;68.30;;;;;;6194368;28;88589;-62
2023/12/17 15:02:56;;;;;;;11.55;7.38;;;24.10;68.60;;;;;;6216934;28;89047;-62
2023/12/17 15:05:59;;;;;;;10.32;6.78;;;24.00;68.80;;;;;;6217817;28;89594;-62
2023/12/17 15:09:03;;;;;;;11.13;7.30;;;24.00;69.00;;;;;;6206361;28;90466;-62
2023/12/17 15:12:06;;;;;;;11.05;6.72;;;24.00;69.20;;;;;;6202342;28;89124;-62
2023/12/17 15:15:09;;;;;;;10.02;7.10;;;24.00;69.30;;;;;;6213341;28;89833;-62
2023/12/17 15:18:12;;;;;;;11.88;6.57;;;24.00;69.50;;;;;;6210972;28;89161;-62
2023/12/17 15:21:20;;;;;;;10.00;6.70;;;24.00;69.50;;;;;;6205164;28;89263;-62
2023/12/17 15:24:22;;;;;;;11.90;6.90;;;24.00;69.50;;;;;;6215206;28;89115;-62
2023/12/17 15:27:24;;;;;;;10.90;7.20;;;23.90;69.50;;;;;;6195338;28;89426;-62
2023/12/17 15:30:26;;;;;;;11.23;6.72;;;23.90;69.50;;;;;;6195753;28;87540;-62
2023/12/17 15:33:28;;;;;;;13.10;7.20;;;23.90;69.50;;;;;;6209751;28;89206;-62
2023/12/17 15:36:31;;;;;;;10.85;6.78;;;23.90;69.50;;;;;;6204508;28;89344;-62
2023/12/17 15:39:34;;;;;;;11.43;6.25;;;23.90;69.40;;;;;;6207975;28;90349;-61
2023/12/17 15:42:36;;;;;;;9.68;5.97;;;23.90;69.40;;;;;;6199266;28;89375;-62
2023/12/17 15:45:38;;;;;;;9.80;6.50;;;23.90;69.40;;;;;;6206145;28;89386;-62